Time,TemperatureF,DewpointF,PressureIn,WindDirection,WindDirectionDegrees,WindSpeedMPH,WindSpeedGustMPH,Humidity,HourlyPrecipIn,Conditions,Clouds,dailyrainin,SoftwareType,DateUTC
2013-09-08 00:08:00,72.5,-33.3,29.70,South,180,0.0,-999.0,1,-99.99,,,0.00,Acu-Link.com,2013-09-08 05:08:00,
2013-09-08 00:23:00,72.5,-33.3,29.71,ESE,112,0.0,-999.0,1,-99.99,,,0.00,Acu-Link.com,2013-09-08 05:23:00,
2013-09-08 00:38:00,72.7,-33.2,29.69,West,270,0.0,-999.0,1,-99.99,,,0.00,Acu-Link.com,2013-09-08 05:38:00,
2013-09-08 00:54:00,72.1,-33.6,29.68,NNE,22,0.0,-999.0,1,-99.99,,,0.00,Acu-Link.com,2013-09-08 05:54:00,
2013-09-08 01:09:00,72.0,-33.6,29.68,SSE,157,0.0,-999.0,1,-99.99,,,0.00,Acu-Link.com,2013-09-08 06:09:00,
2013-09-08 01:24:00,72.0,-33.6,29.67,NNW,337,0.0,-999.0,1,-99.99,,,0.00,Acu-Link.com,2013-09-08 06:24:00,
2013-09-08 01:40:00,71.6,-33.9,29.68,WNW,292,0.0,-999.0,1,-99.99,,,0.00,Acu-Link.com,2013-09-08 06:40:00,
2013-09-08 01:55:00,71.6,-33.9,29.67,NW,315,0.0,-999.0,1,-99.99,,,0.00,Acu-Link.com,2013-09-08 06:55:00,
2013-09-08 02:10:00,71.1,-34.2,29.67,SW,225,0.0,-999.0,1,-99.99,,,0.00,Acu-Link.com,2013-09-08 07:10:00,
2013-09-08 02:25:00,70.9,63.7,29.66,South,180,0.0,-999.0,78,-99.99,,,0.00,Acu-Link.com,2013-09-08 07:25:00,
2013-09-08 02:41:00,70.5,-34.5,29.66,NW,315,0.0,-999.0,1,-99.99,,,0.00,Acu-Link.com,2013-09-08 07:41:00,
2013-09-08 02:56:00,70.7,-34.4,29.65,North,0,0.0,-999.0,1,-99.99,,,0.00,Acu-Link.com,2013-09-08 07:56:00,
2013-09-08 03:12:00,70.5,34.0,29.65,NNE,22,0.0,-999.0,26,-99.99,,,0.00,Acu-Link.com,2013-09-08 08:12:00,
2013-09-08 03:27:00,70.3,-34.6,29.66,NNE,22,0.0,-999.0,1,-99.99,,,0.00,Acu-Link.com,2013-09-08 08:27:00,
2013-09-08 03:42:00,70.2,69.6,29.66,NNE,22,0.0,-999.0,98,-99.99,,,0.00,Acu-Link.com,2013-09-08 08:42:00,
2013-09-08 03:57:00,70.2,-34.7,29.66,NW,315,0.0,-999.0,1,-99.99,,,0.00,Acu-Link.com,2013-09-08 08:57:00,
2013-09-08 04:13:00,69.6,-35.1,29.65,West,270,0.0,-999.0,1,-99.99,,,0.00,Acu-Link.com,2013-09-08 09:13:00,
2013-09-08 04:28:00,69.4,-35.2,29.65,South,180,0.0,-999.0,1,-99.99,,,0.00,Acu-Link.com,2013-09-08 09:28:00,
2013-09-08 04:43:00,68.9,62.8,29.65,ESE,112,0.0,-999.0,81,-99.99,,,0.00,Acu-Link.com,2013-09-08 09:43:00,
2013-09-08 04:58:00,68.9,29.6,29.66,NE,45,0.0,-999.0,23,-99.99,,,0.00,Acu-Link.com,2013-09-08 09:58:00,
2013-09-08 05:14:00,68.9,65.2,29.66,ENE,67,0.0,-999.0,88,-99.99,,,0.00,Acu-Link.com,2013-09-08 10:14:00,
2013-09-08 05:29:00,69.6,68.1,29.67,ENE,67,0.0,-999.0,95,-99.99,,,0.00,Acu-Link.com,2013-09-08 10:29:00,
2013-09-08 05:44:00,68.7,-35.6,29.67,WNW,292,0.0,-999.0,1,-99.99,,,0.00,Acu-Link.com,2013-09-08 10:44:00,
2013-09-08 06:00:00,68.2,-35.9,29.67,NW,315,0.0,-999.0,1,-99.99,,,0.00,Acu-Link.com,2013-09-08 11:00:00,
2013-09-08 06:15:00,68.2,-35.9,29.67,WNW,292,0.0,-999.0,1,-99.99,,,0.00,Acu-Link.com,2013-09-08 11:15:00,
2013-09-08 06:30:00,68.0,60.5,29.67,West,270,0.0,-999.0,77,-99.99,,,0.00,Acu-Link.com,2013-09-08 11:30:00,
2013-09-08 06:45:00,68.5,-35.7,29.67,South,180,0.0,-999.0,1,-99.99,,,0.00,Acu-Link.com,2013-09-08 11:45:00,
2013-09-08 07:00:00,68.5,-35.7,29.68,NE,45,0.0,-999.0,1,-99.99,,,0.00,Acu-Link.com,2013-09-08 12:00:00,
2013-09-08 07:16:00,68.5,-35.7,29.69,WNW,292,0.0,-999.0,1,-99.99,,,0.00,Acu-Link.com,2013-09-08 12:16:00,
2013-09-08 07:31:00,69.8,-34.9,29.71,ESE,112,0.0,-999.0,1,-99.99,,,0.00,Acu-Link.com,2013-09-08 12:31:00,
2013-09-08 07:46:00,71.4,-34.0,29.71,NNE,22,0.0,-999.0,1,-99.99,,,0.00,Acu-Link.com,2013-09-08 12:46:00,
2013-09-08 08:01:00,74.7,-32.0,29.71,North,0,0.0,-999.0,1,-99.99,,,0.00,Acu-Link.com,2013-09-08 13:01:00,
2013-09-08 08:16:00,78.3,-29.9,29.71,East,90,0.0,-999.0,1,-99.99,,,0.00,Acu-Link.com,2013-09-08 13:16:00,
2013-09-08 08:32:00,79.7,-29.0,29.72,NE,45,3.7,-999.0,1,-99.99,,,0.00,Acu-Link.com,2013-09-08 13:32:00,
2013-09-08 08:47:00,81.9,-27.7,29.72,NE,45,4.2,-999.0,1,-99.99,,,0.00,Acu-Link.com,2013-09-08 13:47:00,
2013-09-08 09:02:00,83.5,-26.8,29.73,NE,45,3.7,-999.0,1,-99.99,,,0.00,Acu-Link.com,2013-09-08 14:02:00,
2013-09-08 09:17:00,85.8,-25.4,29.72,NE,45,3.7,-999.0,1,-99.99,,,0.00,Acu-Link.com,2013-09-08 14:17:00,
2013-09-08 09:32:00,87.3,-24.5,29.72,NNE,22,3.7,-999.0,1,-99.99,,,0.00,Acu-Link.com,2013-09-08 14:32:00,
2013-09-08 09:47:00,88.5,-23.8,29.71,East,90,4.7,-999.0,1,-99.99,,,0.00,Acu-Link.com,2013-09-08 14:47:00,
2013-09-08 10:03:00,88.2,-24.0,29.71,NE,45,7.8,-999.0,1,-99.99,,,0.00,Acu-Link.com,2013-09-08 15:03:00,
2013-09-08 10:18:00,90.0,-22.9,29.72,NNE,22,6.8,-999.0,1,-99.99,,,0.00,Acu-Link.com,2013-09-08 15:18:00,
2013-09-08 10:33:00,91.4,-22.1,29.71,NNE,22,6.3,-999.0,1,-99.99,,,0.00,Acu-Link.com,2013-09-08 15:33:00,
2013-09-08 10:48:00,93.6,-20.8,29.72,NNE,22,3.7,-999.0,1,-99.99,,,0.00,Acu-Link.com,2013-09-08 15:48:00,
2013-09-08 11:03:00,95.7,-19.6,29.70,East,90,1.1,-999.0,1,-99.99,,,0.00,Acu-Link.com,2013-09-08 16:03:00,
2013-09-08 11:19:00,97.0,-18.8,29.71,SSE,157,5.8,-999.0,1,-99.99,,,0.00,Acu-Link.com,2013-09-08 16:19:00,
2013-09-08 11:34:00,96.4,-19.2,29.71,ENE,67,6.3,-999.0,1,-99.99,,,0.00,Acu-Link.com,2013-09-08 16:34:00,
2013-09-08 11:49:00,95.9,-19.5,29.70,ENE,67,2.2,-999.0,1,-99.99,,,0.00,Acu-Link.com,2013-09-08 16:49:00,
2013-09-08 12:04:00,95.7,-19.6,29.70,East,90,2.2,-999.0,1,-99.99,,,0.00,Acu-Link.com,2013-09-08 17:04:00,
2013-09-08 12:19:00,95.4,-19.7,29.70,ENE,67,3.7,-999.0,1,-99.99,,,0.00,Acu-Link.com,2013-09-08 17:19:00,
2013-09-08 12:35:00,93.4,-20.9,29.69,East,90,2.7,-999.0,1,-99.99,,,0.00,Acu-Link.com,2013-09-08 17:35:00,
2013-09-08 12:50:00,93.4,-20.9,29.68,NNE,22,1.1,-999.0,1,-99.99,,,0.00,Acu-Link.com,2013-09-08 17:50:00,
2013-09-08 13:05:00,96.4,-19.2,29.68,East,90,2.7,-999.0,1,-99.99,,,0.00,Acu-Link.com,2013-09-08 18:05:00,
2013-09-08 13:21:00,93.9,-20.6,29.67,South,180,2.2,-999.0,1,-99.99,,,0.00,Acu-Link.com,2013-09-08 18:21:00,
2013-09-08 13:36:00,95.4,-19.7,29.67,ESE,112,4.7,-999.0,1,-99.99,,,0.00,Acu-Link.com,2013-09-08 18:36:00,
2013-09-08 13:51:00,100.2,-16.9,29.66,NNE,22,5.3,-999.0,1,-99.99,,,0.00,Acu-Link.com,2013-09-08 18:51:00,
2013-09-08 14:06:00,100.0,-17.1,29.65,ESE,112,5.3,-999.0,1,-99.99,,,0.00,Acu-Link.com,2013-09-08 19:06:00,
2013-09-08 14:21:00,99.3,-17.5,29.65,NNW,337,2.2,-999.0,1,-99.99,,,0.00,Acu-Link.com,2013-09-08 19:21:00,
2013-09-08 14:36:00,99.1,-17.6,29.65,ESE,112,6.3,-999.0,1,-99.99,,,0.00,Acu-Link.com,2013-09-08 19:36:00,
2013-09-08 14:52:00,100.8,-16.6,29.64,West,270,4.2,-999.0,1,-99.99,,,0.00,Acu-Link.com,2013-09-08 19:52:00,
2013-09-08 15:07:00,99.9,-17.1,29.64,ESE,112,6.3,-999.0,1,-99.99,,,0.00,Acu-Link.com,2013-09-08 20:07:00,
2013-09-08 15:22:00,97.2,-18.7,29.63,East,90,6.8,-999.0,1,-99.99,,,0.00,Acu-Link.com,2013-09-08 20:22:00,
2013-09-08 15:37:00,99.0,-17.6,29.62,South,180,6.8,-999.0,1,-99.99,,,0.00,Acu-Link.com,2013-09-08 20:37:00,
2013-09-08 15:53:00,98.6,-17.9,29.63,South,180,6.3,-999.0,1,-99.99,,,0.00,Acu-Link.com,2013-09-08 20:53:00,
2013-09-08 16:08:00,97.7,-18.4,29.62,East,90,8.9,-999.0,1,-99.99,,,0.00,Acu-Link.com,2013-09-08 21:08:00,
2013-09-08 16:23:00,98.6,-17.9,29.61,ESE,112,3.7,-999.0,1,-99.99,,,0.00,Acu-Link.com,2013-09-08 21:23:00,
2013-09-08 16:38:00,98.4,-18.0,29.61,NNE,22,2.7,-999.0,1,-99.99,,,0.00,Acu-Link.com,2013-09-08 21:38:00,
2013-09-08 16:53:00,95.7,-19.6,29.61,ENE,67,4.2,-999.0,1,-99.99,,,0.00,Acu-Link.com,2013-09-08 21:53:00,
2013-09-08 17:08:00,95.7,-19.6,29.62,ENE,67,4.2,-999.0,1,-99.99,,,0.00,Acu-Link.com,2013-09-08 22:08:00,
2013-09-08 17:23:00,95.5,-19.7,29.61,ENE,67,4.7,-999.0,1,-99.99,,,0.00,Acu-Link.com,2013-09-08 22:23:00,
2013-09-08 17:38:00,93.0,-21.2,29.62,ESE,112,7.3,-999.0,1,-99.99,,,0.00,Acu-Link.com,2013-09-08 22:38:00,
2013-09-08 17:54:00,92.3,-21.6,29.61,ESE,112,3.7,-999.0,1,-99.99,,,0.00,Acu-Link.com,2013-09-08 22:54:00,
2013-09-08 18:09:00,91.8,-21.9,29.62,East,90,3.7,-999.0,1,-99.99,,,0.00,Acu-Link.com,2013-09-08 23:09:00,
2013-09-08 18:24:00,88.3,-23.9,29.63,South,180,9.9,-999.0,1,-99.99,,,0.00,Acu-Link.com,2013-09-08 23:24:00,
2013-09-08 18:39:00,84.2,-26.3,29.64,SE,135,10.9,-999.0,1,-99.99,,,0.00,Acu-Link.com,2013-09-08 23:39:00,
2013-09-08 18:55:00,82.8,-27.2,29.64,ESE,112,4.7,-999.0,1,-99.99,,,0.00,Acu-Link.com,2013-09-08 23:55:00,
2013-09-08 19:10:00,82.2,-27.5,29.64,SSE,157,3.7,-999.0,1,-99.99,,,0.00,Acu-Link.com,2013-09-09 00:10:00,
2013-09-08 19:25:00,81.5,-27.9,29.64,West,270,6.8,-999.0,1,-99.99,,,0.00,Acu-Link.com,2013-09-09 00:25:00,
2013-09-08 19:40:00,80.8,-28.4,29.65,SSE,157,3.7,-999.0,1,-99.99,,,0.00,Acu-Link.com,2013-09-09 00:40:00,
2013-09-08 19:56:00,80.1,-28.8,29.65,South,180,1.7,-999.0,1,-99.99,,,0.00,Acu-Link.com,2013-09-09 00:56:00,
2013-09-08 20:11:00,79.5,-29.1,29.66,East,90,2.7,-999.0,1,-99.99,,,0.00,Acu-Link.com,2013-09-09 01:11:00,
2013-09-08 20:26:00,78.8,-29.6,29.66,ENE,67,0.0,-999.0,1,-99.99,,,0.00,Acu-Link.com,2013-09-09 01:26:00,
2013-09-08 20:41:00,78.1,-30.0,29.67,SW,225,1.1,-999.0,1,-99.99,,,0.00,Acu-Link.com,2013-09-09 01:41:00,
2013-09-08 20:56:00,77.4,-30.4,29.66,ESE,112,0.0,-999.0,1,-99.99,,,0.00,Acu-Link.com,2013-09-09 01:56:00,
2013-09-08 21:11:00,77.0,-30.6,29.66,NE,45,0.0,-999.0,1,-99.99,,,0.00,Acu-Link.com,2013-09-09 02:11:00,
2013-09-08 21:27:00,76.3,-31.0,29.67,ESE,112,0.0,-999.0,1,-99.99,,,0.00,Acu-Link.com,2013-09-09 02:27:00,
2013-09-08 21:42:00,75.6,-31.5,29.67,North,0,0.0,-999.0,1,-99.99,,,0.00,Acu-Link.com,2013-09-09 02:42:00,
2013-09-08 21:57:00,75.7,-31.4,29.67,NNE,22,0.0,-999.0,1,-99.99,,,0.00,Acu-Link.com,2013-09-09 02:57:00,
2013-09-08 22:13:00,74.8,-31.9,29.67,East,90,1.7,-999.0,1,-99.99,,,0.00,Acu-Link.com,2013-09-09 03:13:00,
2013-09-08 22:28:00,74.3,-32.2,29.67,SW,225,0.0,-999.0,1,-99.99,,,0.00,Acu-Link.com,2013-09-09 03:28:00,
2013-09-08 22:43:00,73.6,-32.7,29.67,WNW,292,0.0,-999.0,1,-99.99,,,0.00,Acu-Link.com,2013-09-09 03:43:00,
2013-09-08 22:59:00,72.9,-33.1,29.66,WNW,292,0.0,-999.0,1,-99.99,,,0.00,Acu-Link.com,2013-09-09 03:59:00,
2013-09-08 23:14:00,72.7,-33.2,29.67,WNW,292,0.0,-999.0,1,-99.99,,,0.00,Acu-Link.com,2013-09-09 04:14:00,
2013-09-08 23:29:00,72.5,-33.3,29.67,WSW,247,0.0,-999.0,1,-99.99,,,0.00,Acu-Link.com,2013-09-09 04:29:00,
2013-09-08 23:44:00,72.7,-33.2,29.67,NNW,337,0.0,-999.0,1,-99.99,,,0.00,Acu-Link.com,2013-09-09 04:44:00,